sensor_id;sensor_type;location;lat;lon;timestamp;P1;durP1;ratioP1;P2;durP2;ratioP2
13927;SDS011;7036;50.834;4.718;2023-02-22T00:00:29;12.07;;;9.90;;
13927;SDS011;7036;50.834;4.718;2023-02-22T00:03:02;11.63;;;10.00;;
13927;SDS011;7036;50.834;4.718;2023-02-22T00:05:30;11.50;;;10.33;;
13927;SDS011;7036;50.834;4.718;2023-02-22T00:07:58;11.75;;;9.75;;
13927;SDS011;7036;50.834;4.718;2023-02-22T00:10:25;13.90;;;10.85;;
13927;SDS011;7036;50.834;4.718;2023-02-22T00:12:53;11.85;;;10.35;;
13927;SDS011;7036;50.834;4.718;2023-02-22T00:15:21;10.18;;;9.07;;
13927;SDS011;7036;50.834;4.718;2023-02-22T00:17:47;11.73;;;10.10;;
13927;SDS011;7036;50.834;4.718;2023-02-22T00:20:15;12.30;;;10.18;;
13927;SDS011;7036;50.834;4.718;2023-02-22T00:22:45;12.25;;;9.73;;
13927;SDS011;7036;50.834;4.718;2023-02-22T00:25:10;11.13;;;9.55;;
13927;SDS011;7036;50.834;4.718;2023-02-22T00:27:36;12.83;;;9.63;;
13927;SDS011;7036;50.834;4.718;2023-02-22T00:30:04;10.77;;;9.43;;
13927;SDS011;7036;50.834;4.718;2023-02-22T00:32:32;11.90;;;9.73;;
13927;SDS011;7036;50.834;4.718;2023-02-22T00:35:00;10.70;;;9.52;;
13927;SDS011;7036;50.834;4.718;2023-02-22T00:37:28;9.82;;;8.82;;
13927;SDS011;7036;50.834;4.718;2023-02-22T00:39:56;11.15;;;9.73;;
13927;SDS011;7036;50.834;4.718;2023-02-22T00:42:23;11.13;;;9.57;;
13927;SDS011;7036;50.834;4.718;2023-02-22T00:44:51;11.63;;;8.93;;
13927;SDS011;7036;50.834;4.718;2023-02-22T00:47:19;10.10;;;9.02;;
13927;SDS011;7036;50.834;4.718;2023-02-22T00:49:47;11.68;;;10.02;;
13927;SDS011;7036;50.834;4.718;2023-02-22T00:52:14;11.98;;;9.88;;
13927;SDS011;7036;50.834;4.718;2023-02-22T00:54:41;10.35;;;9.05;;
13927;SDS011;7036;50.834;4.718;2023-02-22T00:57:09;10.52;;;9.25;;
13927;SDS011;7036;50.834;4.718;2023-02-22T00:59:37;10.95;;;9.30;;
13927;SDS011;7036;50.834;4.718;2023-02-22T01:02:04;9.90;;;8.90;;
13927;SDS011;7036;50.834;4.718;2023-02-22T01:04:32;9.57;;;8.57;;
13927;SDS011;7036;50.834;4.718;2023-02-22T01:07:00;9.73;;;8.73;;
13927;SDS011;7036;50.834;4.718;2023-02-22T01:09:28;9.80;;;8.75;;
13927;SDS011;7036;50.834;4.718;2023-02-22T01:11:55;9.02;;;8.07;;
13927;SDS011;7036;50.834;4.718;2023-02-22T01:14:24;8.75;;;7.85;;
13927;SDS011;7036;50.834;4.718;2023-02-22T01:16:51;9.02;;;7.82;;
13927;SDS011;7036;50.834;4.718;2023-02-22T01:19:18;9.25;;;8.35;;
13927;SDS011;7036;50.834;4.718;2023-02-22T01:21:46;9.80;;;8.65;;
13927;SDS011;7036;50.834;4.718;2023-02-22T01:24:14;9.57;;;8.57;;
13927;SDS011;7036;50.834;4.718;2023-02-22T01:26:42;8.88;;;7.97;;
13927;SDS011;7036;50.834;4.718;2023-02-22T01:29:12;10.13;;;8.95;;
13927;SDS011;7036;50.834;4.718;2023-02-22T01:31:42;9.30;;;7.77;;
13927;SDS011;7036;50.834;4.718;2023-02-22T01:34:09;8.33;;;7.43;;
13927;SDS011;7036;50.834;4.718;2023-02-22T01:36:37;8.85;;;8.00;;
13927;SDS011;7036;50.834;4.718;2023-02-22T01:39:05;8.52;;;7.63;;
13927;SDS011;7036;50.834;4.718;2023-02-22T01:41:33;7.95;;;7.15;;
13927;SDS011;7036;50.834;4.718;2023-02-22T01:46:42;9.50;;;8.57;;
13927;SDS011;7036;50.834;4.718;2023-02-22T01:49:10;8.25;;;7.55;;
13927;SDS011;7036;50.834;4.718;2023-02-22T01:51:38;11.10;;;7.53;;
13927;SDS011;7036;50.834;4.718;2023-02-22T01:54:07;8.88;;;7.72;;
13927;SDS011;7036;50.834;4.718;2023-02-22T01:56:34;8.15;;;7.18;;
13927;SDS011;7036;50.834;4.718;2023-02-22T01:59:02;8.15;;;6.93;;
13927;SDS011;7036;50.834;4.718;2023-02-22T02:01:29;8.27;;;6.60;;
13927;SDS011;7036;50.834;4.718;2023-02-22T02:03:58;8.10;;;7.18;;
13927;SDS011;7036;50.834;4.718;2023-02-22T02:06:25;7.85;;;7.05;;
13927;SDS011;7036;50.834;4.718;2023-02-22T02:08:58;7.82;;;6.65;;
13927;SDS011;7036;50.834;4.718;2023-02-22T02:11:26;7.47;;;6.70;;
13927;SDS011;7036;50.834;4.718;2023-02-22T02:13:54;7.63;;;6.80;;
13927;SDS011;7036;50.834;4.718;2023-02-22T02:16:22;6.53;;;5.82;;
13927;SDS011;7036;50.834;4.718;2023-02-22T02:18:49;7.82;;;7.03;;
13927;SDS011;7036;50.834;4.718;2023-02-22T02:21:27;7.05;;;6.30;;
13927;SDS011;7036;50.834;4.718;2023-02-22T02:26:57;6.57;;;5.87;;
13927;SDS011;7036;50.834;4.718;2023-02-22T02:29:42;7.40;;;6.67;;
13927;SDS011;7036;50.834;4.718;2023-02-22T02:37:31;6.88;;;6.07;;
13927;SDS011;7036;50.834;4.718;2023-02-22T02:40:17;6.17;;;5.43;;
13927;SDS011;7036;50.834;4.718;2023-02-22T02:42:41;6.03;;;5.47;;
13927;SDS011;7036;50.834;4.718;2023-02-22T02:45:10;7.97;;;6.00;;
13927;SDS011;7036;50.834;4.718;2023-02-22T02:47:39;6.50;;;5.90;;
13927;SDS011;7036;50.834;4.718;2023-02-22T02:50:10;6.67;;;5.97;;
13927;SDS011;7036;50.834;4.718;2023-02-22T02:52:36;7.17;;;6.47;;
13927;SDS011;7036;50.834;4.718;2023-02-22T02:55:04;6.15;;;5.55;;
13927;SDS011;7036;50.834;4.718;2023-02-22T02:57:32;6.15;;;5.55;;
13927;SDS011;7036;50.834;4.718;2023-02-22T03:00:00;6.70;;;5.70;;
13927;SDS011;7036;50.834;4.718;2023-02-22T03:05:06;6.10;;;5.50;;
13927;SDS011;7036;50.834;4.718;2023-02-22T03:10:34;5.90;;;5.40;;
13927;SDS011;7036;50.834;4.718;2023-02-22T03:15:36;5.80;;;5.20;;
13927;SDS011;7036;50.834;4.718;2023-02-22T03:18:02;6.43;;;5.30;;
13927;SDS011;7036;50.834;4.718;2023-02-22T03:20:43;5.53;;;4.97;;
13927;SDS011;7036;50.834;4.718;2023-02-22T03:23:19;5.80;;;5.20;;
13927;SDS011;7036;50.834;4.718;2023-02-22T03:25:49;5.83;;;5.20;;
13927;SDS011;7036;50.834;4.718;2023-02-22T03:28:15;5.63;;;5.00;;
13927;SDS011;7036;50.834;4.718;2023-02-22T03:31:16;5.05;;;4.63;;
13927;SDS011;7036;50.834;4.718;2023-02-22T03:33:39;5.43;;;4.93;;
13927;SDS011;7036;50.834;4.718;2023-02-22T03:36:17;5.37;;;4.87;;
13927;SDS011;7036;50.834;4.718;2023-02-22T03:38:44;4.87;;;4.47;;
13927;SDS011;7036;50.834;4.718;2023-02-22T03:41:12;5.30;;;4.38;;
13927;SDS011;7036;50.834;4.718;2023-02-22T03:43:46;4.50;;;4.10;;
13927;SDS011;7036;50.834;4.718;2023-02-22T03:46:10;4.73;;;4.33;;
13927;SDS011;7036;50.834;4.718;2023-02-22T03:51:12;5.63;;;4.87;;
13927;SDS011;7036;50.834;4.718;2023-02-22T03:53:41;4.80;;;4.40;;
13927;SDS011;7036;50.834;4.718;2023-02-22T03:56:09;4.57;;;4.18;;
13927;SDS011;7036;50.834;4.718;2023-02-22T03:58:38;4.78;;;4.38;;
13927;SDS011;7036;50.834;4.718;2023-02-22T04:01:04;4.55;;;4.15;;
13927;SDS011;7036;50.834;4.718;2023-02-22T04:03:32;4.25;;;3.90;;
13927;SDS011;7036;50.834;4.718;2023-02-22T04:06:00;4.45;;;4.05;;
13927;SDS011;7036;50.834;4.718;2023-02-22T04:08:28;4.15;;;3.72;;
13927;SDS011;7036;50.834;4.718;2023-02-22T04:10:56;4.70;;;4.30;;
13927;SDS011;7036;50.834;4.718;2023-02-22T04:13:24;4.65;;;4.25;;
13927;SDS011;7036;50.834;4.718;2023-02-22T04:15:52;4.40;;;4.00;;
13927;SDS011;7036;50.834;4.718;2023-02-22T04:18:20;4.93;;;4.53;;
13927;SDS011;7036;50.834;4.718;2023-02-22T04:20:48;3.70;;;3.40;;
13927;SDS011;7036;50.834;4.718;2023-02-22T04:23:16;4.10;;;3.70;;
13927;SDS011;7036;50.834;4.718;2023-02-22T04:25:44;4.38;;;3.97;;
13927;SDS011;7036;50.834;4.718;2023-02-22T04:28:12;4.28;;;3.88;;
13927;SDS011;7036;50.834;4.718;2023-02-22T04:30:39;4.05;;;3.70;;
13927;SDS011;7036;50.834;4.718;2023-02-22T04:33:07;3.90;;;3.50;;
13927;SDS011;7036;50.834;4.718;2023-02-22T04:35:35;3.55;;;3.22;;
13927;SDS011;7036;50.834;4.718;2023-02-22T04:38:03;3.88;;;3.58;;
13927;SDS011;7036;50.834;4.718;2023-02-22T04:40:31;4.15;;;3.75;;
13927;SDS011;7036;50.834;4.718;2023-02-22T04:42:59;2.88;;;2.67;;
13927;SDS011;7036;50.834;4.718;2023-02-22T04:45:27;3.63;;;3.33;;
13927;SDS011;7036;50.834;4.718;2023-02-22T04:47:55;3.53;;;3.22;;
13927;SDS011;7036;50.834;4.718;2023-02-22T04:50:23;3.92;;;3.50;;
13927;SDS011;7036;50.834;4.718;2023-02-22T04:52:51;4.00;;;3.70;;
13927;SDS011;7036;50.834;4.718;2023-02-22T04:55:19;3.95;;;3.42;;
13927;SDS011;7036;50.834;4.718;2023-02-22T04:57:47;4.20;;;3.80;;
13927;SDS011;7036;50.834;4.718;2023-02-22T05:00:15;4.10;;;3.53;;
13927;SDS011;7036;50.834;4.718;2023-02-22T05:02:42;3.47;;;3.17;;
13927;SDS011;7036;50.834;4.718;2023-02-22T05:05:12;3.27;;;3.07;;
13927;SDS011;7036;50.834;4.718;2023-02-22T05:07:37;3.70;;;3.40;;
13927;SDS011;7036;50.834;4.718;2023-02-22T05:10:05;3.40;;;3.10;;
13927;SDS011;7036;50.834;4.718;2023-02-22T05:12:34;3.80;;;3.13;;
13927;SDS011;7036;50.834;4.718;2023-02-22T05:15:01;3.20;;;2.75;;
13927;SDS011;7036;50.834;4.718;2023-02-22T05:17:29;3.90;;;3.45;;
13927;SDS011;7036;50.834;4.718;2023-02-22T05:19:58;3.08;;;2.85;;
13927;SDS011;7036;50.834;4.718;2023-02-22T05:22:24;4.57;;;3.43;;
13927;SDS011;7036;50.834;4.718;2023-02-22T05:24:52;3.00;;;2.80;;
13927;SDS011;7036;50.834;4.718;2023-02-22T05:27:20;3.20;;;2.90;;
13927;SDS011;7036;50.834;4.718;2023-02-22T05:29:48;3.40;;;3.10;;
13927;SDS011;7036;50.834;4.718;2023-02-22T05:32:15;3.28;;;2.97;;
13927;SDS011;7036;50.834;4.718;2023-02-22T05:34:43;3.03;;;2.72;;
13927;SDS011;7036;50.834;4.718;2023-02-22T05:37:11;3.38;;;3.08;;
13927;SDS011;7036;50.834;4.718;2023-02-22T05:39:39;3.10;;;2.80;;
13927;SDS011;7036;50.834;4.718;2023-02-22T05:42:07;3.40;;;3.20;;
13927;SDS011;7036;50.834;4.718;2023-02-22T05:44:35;3.22;;;2.97;;
13927;SDS011;7036;50.834;4.718;2023-02-22T05:47:03;3.90;;;3.33;;
13927;SDS011;7036;50.834;4.718;2023-02-22T05:49:31;3.28;;;2.97;;
13927;SDS011;7036;50.834;4.718;2023-02-22T05:51:59;3.40;;;3.10;;
13927;SDS011;7036;50.834;4.718;2023-02-22T05:54:26;3.38;;;3.08;;
13927;SDS011;7036;50.834;4.718;2023-02-22T05:56:53;3.55;;;3.25;;
13927;SDS011;7036;50.834;4.718;2023-02-22T05:59:21;3.30;;;3.00;;
13927;SDS011;7036;50.834;4.718;2023-02-22T06:01:48;4.18;;;3.13;;
13927;SDS011;7036;50.834;4.718;2023-02-22T06:04:16;2.90;;;2.70;;
13927;SDS011;7036;50.834;4.718;2023-02-22T06:06:44;3.03;;;2.72;;
13927;SDS011;7036;50.834;4.718;2023-02-22T06:09:12;3.67;;;3.38;;
13927;SDS011;7036;50.834;4.718;2023-02-22T06:11:40;2.80;;;2.50;;
13927;SDS011;7036;50.834;4.718;2023-02-22T06:14:08;3.15;;;2.85;;
13927;SDS011;7036;50.834;4.718;2023-02-22T06:16:36;3.30;;;3.00;;
13927;SDS011;7036;50.834;4.718;2023-02-22T06:19:04;3.45;;;2.67;;
13927;SDS011;7036;50.834;4.718;2023-02-22T06:21:32;2.65;;;2.45;;
13927;SDS011;7036;50.834;4.718;2023-02-22T06:24:03;2.85;;;2.65;;
13927;SDS011;7036;50.834;4.718;2023-02-22T06:26:29;3.00;;;2.77;;
13927;SDS011;7036;50.834;4.718;2023-02-22T06:28:57;2.72;;;2.47;;
13927;SDS011;7036;50.834;4.718;2023-02-22T06:31:25;2.78;;;2.58;;
13927;SDS011;7036;50.834;4.718;2023-02-22T06:33:52;2.55;;;2.28;;
13927;SDS011;7036;50.834;4.718;2023-02-22T06:36:20;2.95;;;2.70;;
13927;SDS011;7036;50.834;4.718;2023-02-22T06:38:48;3.63;;;2.92;;
13927;SDS011;7036;50.834;4.718;2023-02-22T06:41:16;3.13;;;2.65;;
13927;SDS011;7036;50.834;4.718;2023-02-22T06:43:46;2.90;;;2.63;;
13927;SDS011;7036;50.834;4.718;2023-02-22T06:46:13;2.50;;;2.30;;
13927;SDS011;7036;50.834;4.718;2023-02-22T06:48:39;2.83;;;2.30;;
13927;SDS011;7036;50.834;4.718;2023-02-22T06:51:08;2.97;;;2.67;;
13927;SDS011;7036;50.834;4.718;2023-02-22T06:53:35;3.95;;;2.63;;
13927;SDS011;7036;50.834;4.718;2023-02-22T06:56:03;3.30;;;2.53;;
13927;SDS011;7036;50.834;4.718;2023-02-22T06:58:31;3.23;;;2.90;;
13927;SDS011;7036;50.834;4.718;2023-02-22T07:00:58;3.00;;;2.63;;
13927;SDS011;7036;50.834;4.718;2023-02-22T07:03:25;2.70;;;2.50;;
13927;SDS011;7036;50.834;4.718;2023-02-22T07:05:54;3.72;;;2.40;;
13927;SDS011;7036;50.834;4.718;2023-02-22T07:08:22;2.60;;;2.33;;
13927;SDS011;7036;50.834;4.718;2023-02-22T07:10:49;2.87;;;2.67;;
13927;SDS011;7036;50.834;4.718;2023-02-22T07:13:17;3.60;;;2.58;;
13927;SDS011;7036;50.834;4.718;2023-02-22T07:15:45;3.47;;;2.70;;
13927;SDS011;7036;50.834;4.718;2023-02-22T07:18:13;3.47;;;2.70;;
13927;SDS011;7036;50.834;4.718;2023-02-22T07:20:40;2.78;;;2.58;;
13927;SDS011;7036;50.834;4.718;2023-02-22T07:23:08;3.55;;;3.25;;
13927;SDS011;7036;50.834;4.718;2023-02-22T07:25:36;4.57;;;3.08;;
13927;SDS011;7036;50.834;4.718;2023-02-22T07:28:04;4.03;;;3.10;;
13927;SDS011;7036;50.834;4.718;2023-02-22T07:30:32;5.03;;;3.15;;
13927;SDS011;7036;50.834;4.718;2023-02-22T07:33:02;3.95;;;2.60;;
13927;SDS011;7036;50.834;4.718;2023-02-22T07:35:29;4.73;;;3.23;;
13927;SDS011;7036;50.834;4.718;2023-02-22T07:37:55;3.85;;;2.97;;
13927;SDS011;7036;50.834;4.718;2023-02-22T07:40:23;3.08;;;2.85;;
13927;SDS011;7036;50.834;4.718;2023-02-22T07:43:01;5.82;;;3.03;;
13927;SDS011;7036;50.834;4.718;2023-02-22T07:45:30;3.30;;;3.00;;
13927;SDS011;7036;50.834;4.718;2023-02-22T07:47:55;3.88;;;2.60;;
13927;SDS011;7036;50.834;4.718;2023-02-22T07:50:23;5.40;;;3.30;;
13927;SDS011;7036;50.834;4.718;2023-02-22T07:52:54;3.13;;;2.83;;
13927;SDS011;7036;50.834;4.718;2023-02-22T07:55:21;4.10;;;3.13;;
13927;SDS011;7036;50.834;4.718;2023-02-22T07:57:48;5.60;;;3.05;;
13927;SDS011;7036;50.834;4.718;2023-02-22T08:00:20;4.72;;;2.90;;
13927;SDS011;7036;50.834;4.718;2023-02-22T08:02:44;4.00;;;3.60;;
13927;SDS011;7036;50.834;4.718;2023-02-22T08:05:12;7.18;;;3.90;;
13927;SDS011;7036;50.834;4.718;2023-02-22T08:07:41;4.20;;;2.70;;
13927;SDS011;7036;50.834;4.718;2023-02-22T08:10:08;8.93;;;3.80;;
13927;SDS011;7036;50.834;4.718;2023-02-22T08:12:35;7.07;;;5.05;;
13927;SDS011;7036;50.834;4.718;2023-02-22T08:15:03;11.82;;;4.63;;
13927;SDS011;7036;50.834;4.718;2023-02-22T08:17:29;7.57;;;4.13;;
13927;SDS011;7036;50.834;4.718;2023-02-22T08:19:57;6.80;;;4.00;;
13927;SDS011;7036;50.834;4.718;2023-02-22T08:22:25;6.07;;;5.25;;
13927;SDS011;7036;50.834;4.718;2023-02-22T08:24:53;9.77;;;5.70;;
13927;SDS011;7036;50.834;4.718;2023-02-22T08:27:24;8.10;;;5.80;;
13927;SDS011;7036;50.834;4.718;2023-02-22T08:29:49;7.95;;;5.40;;
13927;SDS011;7036;50.834;4.718;2023-02-22T08:32:16;7.53;;;5.30;;
13927;SDS011;7036;50.834;4.718;2023-02-22T08:34:44;9.90;;;5.85;;
13927;SDS011;7036;50.834;4.718;2023-02-22T08:37:12;10.95;;;5.20;;
13927;SDS011;7036;50.834;4.718;2023-02-22T08:39:39;12.20;;;5.97;;
13927;SDS011;7036;50.834;4.718;2023-02-22T08:42:06;11.32;;;6.38;;
13927;SDS011;7036;50.834;4.718;2023-02-22T08:44:34;7.03;;;5.53;;
13927;SDS011;7036;50.834;4.718;2023-02-22T08:47:02;13.35;;;7.43;;
13927;SDS011;7036;50.834;4.718;2023-02-22T08:49:30;11.70;;;7.05;;
13927;SDS011;7036;50.834;4.718;2023-02-22T08:51:58;16.25;;;7.97;;
13927;SDS011;7036;50.834;4.718;2023-02-22T08:54:26;16.00;;;7.43;;
13927;SDS011;7036;50.834;4.718;2023-02-22T08:56:54;21.40;;;7.63;;
13927;SDS011;7036;50.834;4.718;2023-02-22T08:59:22;33.33;;;8.25;;
13927;SDS011;7036;50.834;4.718;2023-02-22T09:01:49;26.40;;;8.38;;
13927;SDS011;7036;50.834;4.718;2023-02-22T09:04:17;16.38;;;7.18;;
13927;SDS011;7036;50.834;4.718;2023-02-22T09:06:45;13.95;;;7.03;;
13927;SDS011;7036;50.834;4.718;2023-02-22T09:09:12;21.58;;;8.05;;
13927;SDS011;7036;50.834;4.718;2023-02-22T09:11:40;20.48;;;7.13;;
13927;SDS011;7036;50.834;4.718;2023-02-22T09:14:07;23.17;;;8.18;;
13927;SDS011;7036;50.834;4.718;2023-02-22T09:16:35;29.65;;;8.05;;
13927;SDS011;7036;50.834;4.718;2023-02-22T09:19:02;21.40;;;7.47;;
13927;SDS011;7036;50.834;4.718;2023-02-22T09:21:31;24.20;;;7.97;;
13927;SDS011;7036;50.834;4.718;2023-02-22T09:23:57;22.70;;;7.53;;
13927;SDS011;7036;50.834;4.718;2023-02-22T09:26:25;14.98;;;6.55;;
13927;SDS011;7036;50.834;4.718;2023-02-22T09:28:53;14.65;;;6.90;;
13927;SDS011;7036;50.834;4.718;2023-02-22T09:31:20;14.25;;;6.90;;
13927;SDS011;7036;50.834;4.718;2023-02-22T09:33:48;22.15;;;7.20;;
13927;SDS011;7036;50.834;4.718;2023-02-22T09:36:15;25.35;;;7.43;;
13927;SDS011;7036;50.834;4.718;2023-02-22T09:38:42;24.92;;;7.25;;
13927;SDS011;7036;50.834;4.718;2023-02-22T09:41:15;29.60;;;7.60;;
13927;SDS011;7036;50.834;4.718;2023-02-22T09:46:32;21.77;;;7.40;;
13927;SDS011;7036;50.834;4.718;2023-02-22T09:49:00;33.70;;;7.60;;
13927;SDS011;7036;50.834;4.718;2023-02-22T09:51:42;37.83;;;8.20;;
13927;SDS011;7036;50.834;4.718;2023-02-22T09:54:32;13.60;;;6.47;;
13927;SDS011;7036;50.834;4.718;2023-02-22T09:56:59;28.33;;;7.83;;
13927;SDS011;7036;50.834;4.718;2023-02-22T09:59:29;28.43;;;7.67;;
13927;SDS011;7036;50.834;4.718;2023-02-22T10:02:01;36.47;;;7.77;;
13927;SDS011;7036;50.834;4.718;2023-02-22T10:04:33;33.07;;;8.20;;
13927;SDS011;7036;50.834;4.718;2023-02-22T10:07:13;27.77;;;8.27;;
13927;SDS011;7036;50.834;4.718;2023-02-22T10:09:46;29.60;;;7.93;;
13927;SDS011;7036;50.834;4.718;2023-02-22T10:12:24;22.95;;;7.40;;
13927;SDS011;7036;50.834;4.718;2023-02-22T10:17:47;23.90;;;6.60;;
13927;SDS011;7036;50.834;4.718;2023-02-22T10:25:43;20.17;;;6.03;;
13927;SDS011;7036;50.834;4.718;2023-02-22T10:28:17;17.73;;;6.80;;
13927;SDS011;7036;50.834;4.718;2023-02-22T10:30:43;34.97;;;8.00;;
13927;SDS011;7036;50.834;4.718;2023-02-22T10:33:21;26.67;;;7.13;;
13927;SDS011;7036;50.834;4.718;2023-02-22T10:35:50;23.07;;;8.00;;
13927;SDS011;7036;50.834;4.718;2023-02-22T10:38:23;27.15;;;7.10;;
13927;SDS011;7036;50.834;4.718;2023-02-22T10:40:49;20.23;;;7.00;;
13927;SDS011;7036;50.834;4.718;2023-02-22T10:43:32;18.90;;;6.70;;
13927;SDS011;7036;50.834;4.718;2023-02-22T10:46:00;17.13;;;6.50;;
13927;SDS011;7036;50.834;4.718;2023-02-22T10:48:27;26.20;;;7.15;;
13927;SDS011;7036;50.834;4.718;2023-02-22T10:50:57;19.77;;;6.90;;
13927;SDS011;7036;50.834;4.718;2023-02-22T10:53:25;23.40;;;7.07;;
13927;SDS011;7036;50.834;4.718;2023-02-22T10:58:43;21.20;;;7.90;;
13927;SDS011;7036;50.834;4.718;2023-02-22T11:01:19;14.67;;;6.77;;
13927;SDS011;7036;50.834;4.718;2023-02-22T11:06:30;11.93;;;6.10;;
13927;SDS011;7036;50.834;4.718;2023-02-22T11:09:04;19.08;;;6.28;;
13927;SDS011;7036;50.834;4.718;2023-02-22T11:11:32;14.33;;;6.13;;
13927;SDS011;7036;50.834;4.718;2023-02-22T11:14:00;18.65;;;6.10;;
13927;SDS011;7036;50.834;4.718;2023-02-22T11:16:42;15.95;;;6.38;;
13927;SDS011;7036;50.834;4.718;2023-02-22T11:21:38;11.73;;;5.80;;
13927;SDS011;7036;50.834;4.718;2023-02-22T11:24:07;14.98;;;5.63;;
13927;SDS011;7036;50.834;4.718;2023-02-22T11:26:39;17.67;;;5.82;;
13927;SDS011;7036;50.834;4.718;2023-02-22T11:29:08;20.87;;;7.10;;
13927;SDS011;7036;50.834;4.718;2023-02-22T11:31:30;16.52;;;5.75;;
13927;SDS011;7036;50.834;4.718;2023-02-22T11:33:59;16.83;;;6.15;;
13927;SDS011;7036;50.834;4.718;2023-02-22T11:36:36;20.80;;;6.03;;
13927;SDS011;7036;50.834;4.718;2023-02-22T11:39:03;17.80;;;5.97;;
13927;SDS011;7036;50.834;4.718;2023-02-22T11:41:30;13.68;;;5.63;;
13927;SDS011;7036;50.834;4.718;2023-02-22T11:44:20;14.40;;;6.68;;
13927;SDS011;7036;50.834;4.718;2023-02-22T11:46:40;15.23;;;6.43;;
13927;SDS011;7036;50.834;4.718;2023-02-22T11:49:08;21.33;;;6.18;;
13927;SDS011;7036;50.834;4.718;2023-02-22T11:54:47;16.33;;;5.17;;
13927;SDS011;7036;50.834;4.718;2023-02-22T11:57:33;12.30;;;5.73;;
13927;SDS011;7036;50.834;4.718;2023-02-22T12:02:56;8.30;;;5.40;;
13927;SDS011;7036;50.834;4.718;2023-02-22T12:08:31;8.27;;;6.00;;
13927;SDS011;7036;50.834;4.718;2023-02-22T12:11:22;9.80;;;5.73;;
13927;SDS011;7036;50.834;4.718;2023-02-22T12:21:26;10.63;;;6.90;;
13927;SDS011;7036;50.834;4.718;2023-02-22T12:23:55;12.50;;;6.05;;
13927;SDS011;7036;50.834;4.718;2023-02-22T12:27:07;9.23;;;6.40;;
13927;SDS011;7036;50.834;4.718;2023-02-22T12:29:07;12.77;;;7.13;;
13927;SDS011;7036;50.834;4.718;2023-02-22T12:31:37;13.05;;;7.07;;
13927;SDS011;7036;50.834;4.718;2023-02-22T12:36:47;10.43;;;6.47;;
13927;SDS011;7036;50.834;4.718;2023-02-22T12:41:51;13.03;;;7.43;;
13927;SDS011;7036;50.834;4.718;2023-02-22T12:44:26;11.32;;;7.15;;
13927;SDS011;7036;50.834;4.718;2023-02-22T12:46:54;10.40;;;7.07;;
13927;SDS011;7036;50.834;4.718;2023-02-22T12:49:30;11.07;;;6.95;;
13927;SDS011;7036;50.834;4.718;2023-02-22T12:54:32;15.17;;;7.33;;
13927;SDS011;7036;50.834;4.718;2023-02-22T12:56:56;12.18;;;7.40;;
13927;SDS011;7036;50.834;4.718;2023-02-22T12:59:28;9.52;;;6.80;;
13927;SDS011;7036;50.834;4.718;2023-02-22T13:02:10;14.27;;;7.63;;
13927;SDS011;7036;50.834;4.718;2023-02-22T13:04:30;13.88;;;7.25;;
13927;SDS011;7036;50.834;4.718;2023-02-22T13:07:00;9.27;;;6.53;;
13927;SDS011;7036;50.834;4.718;2023-02-22T13:12:15;12.27;;;7.00;;
13927;SDS011;7036;50.834;4.718;2023-02-22T13:20:22;7.97;;;6.60;;
13927;SDS011;7036;50.834;4.718;2023-02-22T13:26:10;9.93;;;7.53;;
13927;SDS011;7036;50.834;4.718;2023-02-22T13:36:06;9.60;;;7.50;;
13927;SDS011;7036;50.834;4.718;2023-02-22T13:44:10;10.90;;;8.47;;
13927;SDS011;7036;50.834;4.718;2023-02-22T13:49:24;14.88;;;8.18;;
13927;SDS011;7036;50.834;4.718;2023-02-22T13:51:51;13.70;;;8.30;;
13927;SDS011;7036;50.834;4.718;2023-02-22T13:54:20;16.17;;;9.20;;
13927;SDS011;7036;50.834;4.718;2023-02-22T13:56:45;19.90;;;8.95;;
13927;SDS011;7036;50.834;4.718;2023-02-22T14:01:58;23.80;;;9.27;;
13927;SDS011;7036;50.834;4.718;2023-02-22T14:06:57;16.77;;;9.23;;
13927;SDS011;7036;50.834;4.718;2023-02-22T14:17:36;16.30;;;9.20;;
13927;SDS011;7036;50.834;4.718;2023-02-22T14:20:04;14.43;;;9.25;;
13927;SDS011;7036;50.834;4.718;2023-02-22T14:22:30;19.10;;;10.23;;
13927;SDS011;7036;50.834;4.718;2023-02-22T14:24:57;18.92;;;9.45;;
13927;SDS011;7036;50.834;4.718;2023-02-22T14:27:24;24.15;;;10.40;;
13927;SDS011;7036;50.834;4.718;2023-02-22T14:29:53;34.78;;;11.88;;
13927;SDS011;7036;50.834;4.718;2023-02-22T14:32:31;21.58;;;9.90;;
13927;SDS011;7036;50.834;4.718;2023-02-22T14:34:55;18.77;;;9.97;;
13927;SDS011;7036;50.834;4.718;2023-02-22T14:37:22;31.30;;;10.50;;
13927;SDS011;7036;50.834;4.718;2023-02-22T14:39:52;24.53;;;10.43;;
13927;SDS011;7036;50.834;4.718;2023-02-22T14:43:21;29.93;;;12.93;;
13927;SDS011;7036;50.834;4.718;2023-02-22T14:45:22;25.63;;;10.43;;
13927;SDS011;7036;50.834;4.718;2023-02-22T14:50:48;44.10;;;12.27;;
13927;SDS011;7036;50.834;4.718;2023-02-22T14:53:32;35.73;;;11.67;;
13927;SDS011;7036;50.834;4.718;2023-02-22T14:56:05;26.23;;;11.63;;
13927;SDS011;7036;50.834;4.718;2023-02-22T14:58:45;26.03;;;9.97;;
13927;SDS011;7036;50.834;4.718;2023-02-22T15:01:25;26.53;;;10.77;;
13927;SDS011;7036;50.834;4.718;2023-02-22T15:03:50;33.43;;;11.10;;
13927;SDS011;7036;50.834;4.718;2023-02-22T15:06:27;31.55;;;11.50;;
13927;SDS011;7036;50.834;4.718;2023-02-22T15:09:12;29.77;;;12.07;;
13927;SDS011;7036;50.834;4.718;2023-02-22T15:11:40;23.90;;;10.10;;
13927;SDS011;7036;50.834;4.718;2023-02-22T15:14:14;15.98;;;9.65;;
13927;SDS011;7036;50.834;4.718;2023-02-22T15:16:40;19.90;;;9.53;;
13927;SDS011;7036;50.834;4.718;2023-02-22T15:19:09;29.98;;;11.80;;
13927;SDS011;7036;50.834;4.718;2023-02-22T15:21:35;21.33;;;14.95;;
13927;SDS011;7036;50.834;4.718;2023-02-22T15:24:03;25.77;;;13.35;;
13927;SDS011;7036;50.834;4.718;2023-02-22T15:29:09;19.77;;;13.00;;
13927;SDS011;7036;50.834;4.718;2023-02-22T15:31:36;26.43;;;15.10;;
13927;SDS011;7036;50.834;4.718;2023-02-22T15:34:35;27.90;;;14.07;;
13927;SDS011;7036;50.834;4.718;2023-02-22T15:36:35;22.67;;;14.33;;
13927;SDS011;7036;50.834;4.718;2023-02-22T15:39:02;30.52;;;15.52;;
13927;SDS011;7036;50.834;4.718;2023-02-22T15:41:31;29.77;;;14.75;;
13927;SDS011;7036;50.834;4.718;2023-02-22T15:44:02;31.35;;;15.98;;
13927;SDS011;7036;50.834;4.718;2023-02-22T15:46:29;26.83;;;15.10;;
13927;SDS011;7036;50.834;4.718;2023-02-22T15:49:32;31.98;;;17.05;;
13927;SDS011;7036;50.834;4.718;2023-02-22T15:51:32;35.53;;;15.73;;
13927;SDS011;7036;50.834;4.718;2023-02-22T15:53:59;26.80;;;16.25;;
13927;SDS011;7036;50.834;4.718;2023-02-22T15:56:27;25.25;;;14.57;;
13927;SDS011;7036;50.834;4.718;2023-02-22T15:58:58;32.63;;;16.10;;
13927;SDS011;7036;50.834;4.718;2023-02-22T16:01:25;23.43;;;15.13;;
13927;SDS011;7036;50.834;4.718;2023-02-22T16:03:55;30.80;;;15.83;;
13927;SDS011;7036;50.834;4.718;2023-02-22T16:06:26;35.43;;;16.40;;
13927;SDS011;7036;50.834;4.718;2023-02-22T16:08:50;22.10;;;15.70;;
13927;SDS011;7036;50.834;4.718;2023-02-22T16:11:22;26.30;;;15.40;;
13927;SDS011;7036;50.834;4.718;2023-02-22T16:13:51;27.40;;;16.07;;
13927;SDS011;7036;50.834;4.718;2023-02-22T16:18:45;22.87;;;15.07;;
13927;SDS011;7036;50.834;4.718;2023-02-22T16:21:13;25.70;;;14.80;;
13927;SDS011;7036;50.834;4.718;2023-02-22T16:23:52;30.20;;;15.68;;
13927;SDS011;7036;50.834;4.718;2023-02-22T16:26:26;26.80;;;15.50;;
13927;SDS011;7036;50.834;4.718;2023-02-22T16:28:53;27.60;;;15.13;;
13927;SDS011;7036;50.834;4.718;2023-02-22T16:31:19;22.30;;;14.95;;
13927;SDS011;7036;50.834;4.718;2023-02-22T16:33:47;27.70;;;15.40;;
13927;SDS011;7036;50.834;4.718;2023-02-22T16:36:13;24.42;;;16.85;;
13927;SDS011;7036;50.834;4.718;2023-02-22T16:38:41;31.52;;;15.75;;
13927;SDS011;7036;50.834;4.718;2023-02-22T16:41:08;23.27;;;15.65;;
13927;SDS011;7036;50.834;4.718;2023-02-22T16:43:36;20.45;;;14.65;;
13927;SDS011;7036;50.834;4.718;2023-02-22T16:46:03;19.58;;;14.63;;
13927;SDS011;7036;50.834;4.718;2023-02-22T16:48:31;25.35;;;15.40;;
13927;SDS011;7036;50.834;4.718;2023-02-22T16:51:01;23.83;;;14.90;;
13927;SDS011;7036;50.834;4.718;2023-02-22T16:53:27;18.15;;;13.93;;
13927;SDS011;7036;50.834;4.718;2023-02-22T16:55:57;20.92;;;15.63;;
13927;SDS011;7036;50.834;4.718;2023-02-22T16:58:28;20.60;;;13.70;;